createdAt,value
2022-10-20T00:01:10.226Z,11.20
2022-10-20T00:03:38.874Z,11.02
2022-10-20T00:06:11.740Z,10.13
2022-10-20T00:08:40.431Z,10.57
2022-10-20T00:11:12.088Z,10.25
2022-10-20T00:13:41.725Z,11.10
2022-10-20T00:16:10.566Z,10.77
2022-10-20T00:18:38.753Z,11.27
2022-10-20T00:21:08.946Z,11.40
2022-10-20T00:23:37.455Z,10.77
2022-10-20T00:26:07.148Z,11.35
2022-10-20T00:28:36.729Z,10.65
2022-10-20T00:31:06.284Z,12.85
2022-10-20T00:33:34.969Z,11.63
2022-10-20T00:36:05.134Z,11.52
2022-10-20T00:38:33.657Z,12.73
2022-10-20T00:41:03.197Z,12.38
2022-10-20T00:43:45.659Z,11.20
2022-10-20T00:46:15.296Z,12.63
2022-10-20T00:48:46.649Z,13.40
2022-10-20T00:51:17.833Z,11.35
2022-10-20T00:53:46.879Z,9.25
2022-10-20T00:56:15.912Z,10.02
2022-10-20T00:58:45.679Z,11.02
2022-10-20T01:01:15.857Z,11.20
2022-10-20T01:03:46.768Z,11.73
2022-10-20T01:08:49.274Z,12.02
2022-10-20T01:11:23.827Z,11.18
2022-10-20T01:14:09.976Z,10.48
2022-10-20T01:16:46.557Z,11.77
2022-10-20T01:19:49.348Z,10.60
2022-10-20T01:22:38.401Z,10.32
2022-10-20T01:25:17.996Z,12.35
2022-10-20T01:27:50.303Z,9.98
2022-10-20T01:30:21.038Z,9.98
2022-10-20T01:33:02.804Z,9.63
2022-10-20T01:35:41.096Z,9.35
2022-10-20T01:38:21.629Z,10.82
2022-10-20T01:40:54.052Z,10.32
2022-10-20T01:43:26.556Z,10.63
2022-10-20T01:45:57.204Z,11.02
2022-10-20T01:48:29.921Z,10.00
2022-10-20T01:50:58.172Z,11.20
2022-10-20T01:53:26.180Z,9.43
2022-10-20T01:55:56.298Z,10.98
2022-10-20T01:59:13.982Z,10.57
2022-10-20T02:02:09.684Z,10.73
2022-10-20T02:04:53.751Z,10.38
2022-10-20T02:07:26.829Z,10.25
2022-10-20T02:10:01.665Z,10.43
2022-10-20T02:12:33.516Z,10.50
2022-10-20T02:15:05.567Z,10.32
2022-10-20T02:17:35.706Z,10.20
2022-10-20T02:20:07.539Z,10.27
2022-10-20T02:22:36.589Z,10.60
2022-10-20T02:25:05.641Z,9.18
2022-10-20T02:27:37.071Z,10.43
2022-10-20T02:30:10.832Z,10.35
2022-10-20T02:32:42.255Z,9.65
2022-10-20T02:35:14.832Z,9.65
2022-10-20T02:37:43.058Z,9.75
2022-10-20T02:40:12.444Z,9.23
2022-10-20T02:42:41.041Z,10.32
2022-10-20T02:45:12.177Z,10.55
2022-10-20T02:47:40.442Z,9.88
2022-10-20T02:50:09.936Z,9.63
2022-10-20T02:52:38.386Z,9.77
2022-10-20T02:55:07.299Z,10.18
2022-10-20T02:57:35.827Z,9.48
2022-10-20T03:00:05.560Z,9.93
2022-10-20T03:02:35.205Z,10.55
2022-10-20T03:05:03.827Z,9.32
2022-10-20T03:07:31.856Z,10.45
2022-10-20T03:09:59.866Z,10.85
2022-10-20T03:12:30.222Z,10.73
2022-10-20T03:15:00.502Z,10.52
2022-10-20T03:17:28.626Z,10.30
2022-10-20T03:19:58.206Z,10.10
2022-10-20T03:22:26.282Z,10.93
2022-10-20T03:24:54.344Z,9.20
2022-10-20T03:27:22.343Z,11.18
2022-10-20T03:29:50.441Z,11.80
2022-10-20T03:32:18.758Z,10.38
2022-10-20T03:34:47.031Z,11.15
2022-10-20T03:37:16.419Z,10.05
2022-10-20T03:39:44.670Z,11.77
2022-10-20T03:42:12.869Z,12.25
2022-10-20T03:44:40.943Z,12.32
2022-10-20T03:47:09.117Z,11.40
2022-10-20T03:49:37.137Z,12.15
2022-10-20T03:52:05.479Z,13.13
2022-10-20T03:54:37.268Z,11.40
2022-10-20T03:57:07.822Z,12.98
2022-10-20T03:59:36.089Z,12.55
2022-10-20T04:02:04.682Z,12.45
2022-10-20T04:04:32.780Z,14.68
2022-10-20T04:07:00.822Z,13.50
2022-10-20T04:09:28.933Z,13.18
2022-10-20T04:11:58.461Z,12.75
2022-10-20T04:14:26.547Z,12.70
2022-10-20T04:16:54.547Z,13.18
2022-10-20T04:19:22.859Z,12.10
2022-10-20T04:21:51.136Z,11.60
2022-10-20T04:24:19.424Z,13.77
2022-10-20T04:29:20.423Z,12.10
2022-10-20T04:31:49.295Z,11.27
2022-10-20T04:34:17.701Z,10.82
2022-10-20T04:36:45.822Z,12.27
2022-10-20T04:39:15.131Z,11.30
2022-10-20T04:41:43.477Z,11.68
2022-10-20T04:44:11.805Z,10.25
2022-10-20T04:46:41.158Z,10.35
2022-10-20T04:49:09.223Z,10.60
2022-10-20T04:51:37.311Z,11.07
2022-10-20T04:56:33.520Z,9.20
2022-10-20T04:59:01.697Z,10.57
2022-10-20T05:01:31.037Z,11.00
2022-10-20T05:04:00.821Z,10.27
2022-10-20T05:06:31.052Z,10.48
2022-10-20T05:09:01.659Z,9.38
2022-10-20T05:11:31.138Z,10.18
2022-10-20T05:13:59.332Z,9.55
2022-10-20T05:16:27.929Z,8.95
2022-10-20T05:18:57.904Z,10.15
2022-10-20T05:21:29.212Z,9.82
2022-10-20T05:23:58.218Z,9.65
2022-10-20T05:26:28.438Z,10.05
2022-10-20T05:28:56.827Z,10.43
2022-10-20T05:31:25.355Z,9.93
2022-10-20T05:33:56.226Z,10.80
2022-10-20T05:36:26.365Z,10.57
2022-10-20T05:38:57.464Z,10.52
2022-10-20T05:41:26.977Z,10.70
2022-10-20T05:43:57.821Z,10.90
2022-10-20T05:46:27.093Z,9.88
2022-10-20T05:48:57.227Z,10.65
2022-10-20T05:51:29.254Z,10.95
2022-10-20T05:53:59.803Z,10.60
2022-10-20T05:56:29.533Z,9.95
2022-10-20T05:58:58.859Z,10.50
2022-10-20T06:01:38.754Z,10.85
2022-10-20T06:04:08.697Z,11.32
2022-10-20T06:06:37.159Z,10.65
2022-10-20T06:09:09.305Z,12.05
2022-10-20T06:11:39.494Z,12.40
2022-10-20T06:14:08.533Z,11.48
2022-10-20T06:16:37.368Z,11.65
2022-10-20T06:19:06.751Z,12.63
2022-10-20T06:21:36.206Z,12.02
2022-10-20T06:24:07.642Z,12.38
2022-10-20T06:26:37.433Z,12.32
2022-10-20T06:29:06.743Z,12.63
2022-10-20T06:31:38.955Z,11.50
2022-10-20T06:34:08.004Z,11.18
2022-10-20T06:36:37.685Z,11.70
2022-10-20T06:39:08.600Z,10.85
2022-10-20T06:41:37.061Z,10.93
2022-10-20T06:44:05.306Z,9.88
2022-10-20T06:46:35.526Z,9.35
2022-10-20T06:49:04.803Z,6.15
2022-10-20T06:51:33.386Z,5.22
2022-10-20T06:54:02.488Z,5.82
2022-10-20T06:56:33.627Z,5.85
2022-10-20T06:59:02.888Z,3.38
2022-10-20T07:01:32.555Z,2.97
2022-10-20T07:04:02.958Z,3.38
2022-10-20T07:06:32.915Z,2.85
2022-10-20T07:09:04.001Z,2.90
2022-10-20T07:11:33.769Z,2.72
2022-10-20T07:14:03.271Z,2.60
2022-10-20T07:16:33.700Z,2.30
2022-10-20T07:19:02.799Z,2.85
2022-10-20T07:21:35.778Z,2.35
2022-10-20T07:24:07.477Z,2.60
2022-10-20T07:26:39.099Z,2.08
2022-10-20T07:29:07.516Z,2.17
2022-10-20T07:31:38.301Z,2.35
2022-10-20T07:34:23.910Z,2.17
2022-10-20T07:36:53.194Z,2.30
2022-10-20T07:39:21.457Z,1.83
2022-10-20T07:41:51.030Z,1.88
2022-10-20T07:44:19.183Z,2.65
2022-10-20T07:46:47.235Z,2.30
2022-10-20T07:52:03.245Z,2.33
2022-10-20T07:54:31.862Z,1.65
2022-10-20T07:57:01.356Z,1.48
2022-10-20T07:59:29.957Z,1.65
2022-10-20T08:01:59.863Z,1.55
2022-10-20T08:04:29.002Z,1.30
2022-10-20T08:06:56.983Z,1.50
2022-10-20T08:09:25.356Z,1.33
2022-10-20T08:11:55.541Z,1.45
2022-10-20T08:14:27.689Z,1.30
2022-10-20T08:16:58.250Z,1.35
2022-10-20T08:22:20.544Z,1.08
2022-10-20T08:24:48.560Z,1.77
2022-10-20T08:27:16.732Z,1.30
2022-10-20T08:29:55.000Z,0.85
2022-10-20T08:32:28.718Z,1.00
2022-10-20T08:34:56.644Z,1.00
2022-10-20T08:37:24.952Z,0.90
2022-10-20T08:39:52.955Z,1.63
2022-10-20T08:42:21.047Z,1.52
2022-10-20T08:44:51.241Z,2.60
2022-10-20T08:47:32.337Z,3.42
2022-10-20T08:50:03.816Z,2.08
2022-10-20T08:52:31.835Z,1.70
2022-10-20T08:55:00.153Z,1.77
2022-10-20T08:57:33.367Z,1.30
2022-10-20T09:00:17.026Z,1.35
2022-10-20T09:02:45.312Z,1.30
2022-10-20T09:05:18.201Z,1.40
2022-10-20T09:07:48.497Z,1.48
2022-10-20T09:10:30.266Z,1.33
2022-10-20T09:12:59.422Z,1.20
2022-10-20T09:15:29.867Z,1.30
2022-10-20T09:18:01.429Z,0.88
2022-10-20T09:20:32.980Z,1.05
2022-10-20T09:23:07.839Z,1.50
2022-10-20T09:25:46.381Z,1.75
2022-10-20T09:28:22.829Z,1.35
2022-10-20T09:30:52.948Z,0.98
2022-10-20T09:33:30.073Z,1.52
2022-10-20T09:36:04.353Z,1.10
2022-10-20T09:38:34.893Z,1.10
2022-10-20T09:41:14.916Z,1.20
2022-10-20T09:43:53.148Z,0.80
2022-10-20T09:46:28.618Z,1.00
2022-10-20T09:48:57.416Z,1.10
2022-10-20T09:51:27.168Z,1.05
2022-10-20T09:53:59.699Z,1.30
2022-10-20T09:56:30.771Z,1.05
2022-10-20T09:59:00.866Z,1.17
2022-10-20T10:01:30.550Z,1.00
2022-10-20T10:04:02.254Z,1.10
2022-10-20T10:06:34.184Z,1.25
2022-10-20T10:09:03.284Z,1.10
2022-10-20T10:11:35.423Z,1.20
2022-10-20T10:14:04.876Z,1.10
2022-10-20T10:16:43.886Z,1.30
2022-10-20T10:19:19.278Z,1.50
2022-10-20T10:21:52.575Z,1.50
2022-10-20T10:24:41.724Z,1.42
2022-10-20T10:27:21.601Z,1.25
2022-10-20T10:29:50.060Z,1.40
2022-10-20T10:32:24.384Z,1.60
2022-10-20T10:35:23.603Z,1.30
2022-10-20T10:37:53.314Z,1.52
2022-10-20T10:40:24.355Z,1.45
2022-10-20T10:43:08.413Z,1.40
2022-10-20T10:45:46.929Z,1.30
2022-10-20T10:48:42.611Z,1.08
2022-10-20T10:51:16.807Z,1.30
2022-10-20T10:53:55.521Z,1.20
2022-10-20T10:56:32.982Z,1.27
2022-10-20T10:59:07.245Z,1.13
2022-10-20T11:02:07.749Z,1.20
2022-10-20T11:05:07.616Z,1.30
2022-10-20T11:07:44.074Z,0.93
2022-10-20T11:10:20.796Z,1.10
2022-10-20T11:13:03.565Z,1.23
2022-10-20T11:15:52.115Z,1.25
2022-10-20T11:18:43.371Z,1.33
2022-10-20T11:21:24.144Z,1.73
2022-10-20T11:24:17.505Z,1.20
2022-10-20T11:26:47.657Z,1.00
2022-10-20T11:29:20.559Z,1.15
2022-10-20T11:31:56.592Z,1.50
2022-10-20T11:34:31.236Z,1.15
2022-10-20T11:37:06.647Z,1.45
2022-10-20T11:39:41.269Z,1.33
2022-10-20T11:42:20.295Z,1.52
2022-10-20T11:44:49.987Z,1.25
2022-10-20T11:47:22.475Z,1.65
2022-10-20T11:49:50.791Z,1.50
2022-10-20T11:52:44.449Z,1.85
2022-10-20T11:55:40.288Z,1.33
2022-10-20T11:58:34.565Z,1.30
2022-10-20T12:01:25.770Z,1.25
2022-10-20T12:04:13.319Z,1.80
2022-10-20T12:07:06.061Z,1.52
2022-10-20T12:10:00.395Z,1.52
2022-10-20T12:12:34.135Z,1.35
2022-10-20T12:15:04.561Z,1.30
2022-10-20T12:17:36.143Z,1.30
2022-10-20T12:20:41.725Z,1.45
2022-10-20T12:23:49.360Z,1.27
2022-10-20T12:27:07.447Z,1.55
2022-10-20T12:29:54.732Z,1.10
2022-10-20T12:32:37.040Z,1.60
2022-10-20T12:35:29.819Z,1.60
2022-10-20T12:38:01.578Z,1.75
2022-10-20T12:40:33.867Z,1.65
2022-10-20T12:43:02.382Z,1.60
2022-10-20T12:45:38.267Z,1.58
2022-10-20T12:50:39.751Z,1.63
2022-10-20T12:53:23.544Z,1.80
2022-10-20T12:55:59.109Z,1.60
2022-10-20T12:58:29.751Z,1.50
2022-10-20T13:01:09.291Z,1.73
2022-10-20T13:03:48.698Z,1.85
2022-10-20T13:06:45.165Z,1.77
2022-10-20T13:09:21.256Z,1.20
2022-10-20T13:11:59.018Z,1.52
2022-10-20T13:14:36.874Z,1.40
2022-10-20T13:17:21.364Z,1.60
2022-10-20T13:20:00.375Z,1.45
2022-10-20T13:22:39.037Z,1.42
2022-10-20T13:25:19.230Z,1.38
2022-10-20T13:27:50.400Z,1.35
2022-10-20T13:30:23.096Z,1.70
2022-10-20T13:33:17.787Z,1.17
2022-10-20T13:35:55.554Z,1.30
2022-10-20T13:38:28.139Z,1.30
2022-10-20T13:41:02.839Z,1.48
2022-10-20T13:43:38.039Z,1.33
2022-10-20T13:46:25.348Z,1.30
2022-10-20T13:49:10.395Z,1.50
2022-10-20T13:51:44.351Z,1.60
2022-10-20T13:54:22.173Z,1.60
2022-10-20T13:56:51.589Z,1.42
2022-10-20T13:59:25.484Z,1.30
2022-10-20T14:01:55.715Z,1.38
2022-10-20T14:04:30.504Z,1.45
2022-10-20T14:07:03.769Z,1.90
2022-10-20T14:09:32.405Z,2.10
2022-10-20T14:12:03.673Z,1.90
2022-10-20T14:14:32.072Z,1.58
2022-10-20T14:17:03.253Z,1.73
2022-10-20T14:19:33.642Z,1.70
2022-10-20T14:22:14.384Z,1.80
2022-10-20T14:24:45.258Z,1.83
2022-10-20T14:27:18.452Z,1.90
2022-10-20T14:29:47.444Z,2.22
2022-10-20T14:32:19.895Z,1.73
2022-10-20T14:35:19.039Z,1.95
2022-10-20T14:37:53.517Z,1.75
2022-10-20T14:40:24.622Z,2.08
2022-10-20T14:42:53.442Z,1.77
2022-10-20T14:45:23.646Z,2.03
2022-10-20T14:47:52.822Z,4.53
2022-10-20T14:50:40.942Z,4.22
2022-10-20T14:53:28.773Z,3.25
2022-10-20T14:55:57.384Z,2.25
2022-10-20T14:58:35.742Z,3.88
2022-10-20T15:01:24.152Z,3.00
2022-10-20T15:04:06.916Z,2.22
2022-10-20T15:06:36.441Z,2.05
2022-10-20T15:09:04.875Z,2.28
2022-10-20T15:11:33.082Z,2.63
2022-10-20T15:14:01.588Z,2.00
2022-10-20T15:16:36.123Z,2.58
2022-10-20T15:19:29.200Z,2.00
2022-10-20T15:22:02.131Z,2.08
2022-10-20T15:24:30.705Z,2.00
2022-10-20T15:26:59.694Z,3.13
2022-10-20T15:29:28.422Z,2.17
2022-10-20T15:31:57.045Z,2.83
2022-10-20T15:34:25.638Z,4.10
2022-10-20T15:36:53.883Z,4.20
2022-10-20T15:39:23.660Z,4.43
2022-10-20T15:41:53.879Z,3.75
2022-10-20T15:44:23.475Z,3.78
2022-10-20T15:46:54.080Z,6.72
2022-10-20T15:49:22.934Z,3.40
2022-10-20T15:51:51.658Z,3.72
2022-10-20T15:54:22.541Z,3.55
2022-10-20T15:56:52.269Z,3.80
2022-10-20T15:59:20.312Z,4.95
2022-10-20T16:01:48.350Z,6.45
2022-10-20T16:04:19.108Z,7.25
2022-10-20T16:06:47.324Z,8.07
2022-10-20T16:09:16.338Z,7.50
2022-10-20T16:11:45.018Z,6.95
2022-10-20T16:14:15.711Z,6.20
2022-10-20T16:16:45.186Z,7.07
2022-10-20T16:19:13.818Z,6.47
2022-10-20T16:21:42.362Z,5.45
2022-10-20T16:24:11.535Z,5.63
2022-10-20T16:26:39.585Z,5.25
2022-10-20T16:29:07.899Z,9.55
2022-10-20T16:31:37.431Z,5.38
2022-10-20T16:34:05.596Z,6.00
2022-10-20T16:36:33.841Z,5.45
2022-10-20T16:39:02.269Z,4.80
2022-10-20T16:41:30.331Z,5.32
2022-10-20T16:44:00.902Z,4.90
2022-10-20T16:46:29.464Z,4.50
2022-10-20T16:48:58.931Z,4.68
2022-10-20T16:51:27.015Z,5.28
2022-10-20T16:53:57.287Z,4.38
2022-10-20T16:56:28.864Z,5.70
2022-10-20T16:58:57.393Z,6.45
2022-10-20T17:01:45.890Z,12.10
2022-10-20T17:04:15.368Z,12.50
2022-10-20T17:06:43.380Z,6.93
2022-10-20T17:09:11.609Z,5.60
2022-10-20T17:11:39.697Z,6.45
2022-10-20T17:14:07.752Z,4.30
2022-10-20T17:16:38.217Z,4.53
2022-10-20T17:19:06.483Z,6.60
2022-10-20T17:21:36.463Z,4.57
2022-10-20T17:24:04.896Z,4.32
2022-10-20T17:26:32.976Z,7.68
2022-10-20T17:29:02.250Z,7.35
2022-10-20T17:31:31.293Z,7.57
2022-10-20T17:34:00.280Z,9.10
2022-10-20T17:36:29.286Z,9.15
2022-10-20T17:39:00.540Z,6.72
2022-10-20T17:41:28.679Z,6.38
2022-10-20T17:43:56.923Z,6.43
2022-10-20T17:46:25.027Z,6.45
2022-10-20T17:48:53.150Z,5.15
2022-10-20T17:51:22.997Z,7.75
2022-10-20T17:53:52.494Z,6.72
2022-10-20T17:56:24.387Z,10.45
2022-10-20T17:58:53.118Z,12.98
2022-10-20T18:01:23.641Z,17.48
2022-10-20T18:03:55.691Z,51.17
2022-10-20T18:06:26.356Z,19.73
2022-10-20T18:08:57.275Z,82.82
2022-10-20T18:11:28.514Z,15.68
2022-10-20T18:13:59.489Z,10.15
2022-10-20T18:16:29.398Z,9.27
2022-10-20T18:21:32.412Z,6.18
2022-10-20T18:24:02.590Z,4.65
2022-10-20T18:26:34.272Z,4.38
2022-10-20T18:29:03.342Z,5.20
2022-10-20T18:31:33.492Z,11.48
2022-10-20T18:34:04.481Z,9.68
2022-10-20T18:36:36.894Z,6.22
2022-10-20T18:39:08.537Z,5.88
2022-10-20T18:41:39.730Z,8.15
2022-10-20T18:44:11.855Z,11.15
2022-10-20T18:46:40.632Z,11.05
2022-10-20T18:49:10.320Z,10.15
2022-10-20T18:51:38.600Z,9.82
2022-10-20T18:54:32.125Z,6.97
2022-10-20T18:57:01.541Z,6.93
2022-10-20T18:59:29.652Z,6.25
2022-10-20T19:01:57.835Z,6.68
2022-10-20T19:04:25.823Z,9.30
2022-10-20T19:06:53.935Z,9.52
2022-10-20T19:09:22.693Z,6.78
2022-10-20T19:11:51.178Z,5.40
2022-10-20T19:14:20.554Z,8.85
2022-10-20T19:16:49.775Z,8.40
2022-10-20T19:19:18.043Z,6.18
2022-10-20T19:21:46.415Z,5.18
2022-10-20T19:24:16.695Z,5.75
2022-10-20T19:26:57.104Z,4.95
2022-10-20T19:29:36.414Z,5.22
2022-10-20T19:32:06.430Z,5.68
2022-10-20T19:34:37.100Z,6.50
2022-10-20T19:37:05.700Z,13.45
2022-10-20T19:39:37.004Z,6.78
2022-10-20T19:42:07.264Z,7.32
2022-10-20T19:44:36.945Z,5.07
2022-10-20T19:47:05.991Z,5.47
2022-10-20T19:49:34.489Z,12.68
2022-10-20T19:52:02.724Z,6.70
2022-10-20T19:54:30.794Z,4.90
2022-10-20T19:56:59.011Z,5.13
2022-10-20T19:59:27.667Z,5.32
2022-10-20T20:01:57.334Z,4.90
2022-10-20T20:04:25.458Z,5.00
2022-10-20T20:06:55.451Z,4.75
2022-10-20T20:09:29.449Z,4.78
2022-10-20T20:11:57.809Z,4.53
2022-10-20T20:14:25.842Z,3.58
2022-10-20T20:16:53.940Z,4.05
2022-10-20T20:19:23.553Z,4.00
2022-10-20T20:21:51.622Z,3.92
2022-10-20T20:24:19.831Z,3.80
2022-10-20T20:26:48.207Z,3.58
2022-10-20T20:29:16.649Z,3.67
2022-10-20T20:31:44.921Z,3.80
2022-10-20T20:34:13.011Z,4.10
2022-10-20T20:36:42.523Z,4.00
2022-10-20T20:39:10.775Z,4.45
2022-10-20T20:41:38.788Z,3.45
2022-10-20T20:44:08.441Z,4.10
2022-10-20T20:46:37.708Z,4.10
2022-10-20T20:49:05.929Z,3.80
2022-10-20T20:51:34.670Z,3.45
2022-10-20T20:54:05.040Z,3.88
2022-10-20T20:56:33.309Z,3.55
2022-10-20T20:59:01.488Z,3.92
2022-10-20T21:01:31.838Z,3.70
2022-10-20T21:04:02.116Z,4.03
2022-10-20T21:06:49.506Z,3.80
2022-10-20T21:09:19.930Z,3.47
2022-10-20T21:11:49.113Z,3.95
2022-10-20T21:14:17.409Z,4.20
2022-10-20T21:16:45.676Z,4.20
2022-10-20T21:19:14.044Z,3.92
2022-10-20T21:21:44.544Z,6.30
2022-10-20T21:24:13.877Z,7.63
2022-10-20T21:26:43.691Z,4.35
2022-10-20T21:29:11.915Z,4.10
2022-10-20T21:31:40.820Z,3.30
2022-10-20T21:34:08.861Z,3.38
2022-10-20T21:36:37.888Z,3.40
2022-10-20T21:39:07.720Z,3.10
2022-10-20T21:41:37.606Z,3.65
2022-10-20T21:44:08.549Z,3.58
2022-10-20T21:46:39.183Z,3.42
2022-10-20T21:49:09.381Z,4.28
2022-10-20T21:51:39.622Z,4.30
2022-10-20T21:54:09.791Z,4.70
2022-10-20T21:56:41.147Z,3.80
2022-10-20T21:59:20.032Z,4.10
2022-10-20T22:01:49.026Z,4.32
2022-10-20T22:04:17.532Z,4.82
2022-10-20T22:06:45.879Z,5.40
2022-10-20T22:09:15.364Z,5.53
2022-10-20T22:11:45.565Z,5.22
2022-10-20T22:14:15.004Z,5.38
2022-10-20T22:16:43.601Z,4.70
2022-10-20T22:19:14.515Z,4.43
2022-10-20T22:21:44.843Z,4.93
2022-10-20T22:24:12.902Z,5.10
2022-10-20T22:26:41.529Z,4.88
2022-10-20T22:29:10.562Z,5.00
2022-10-20T22:31:41.261Z,4.70
2022-10-20T22:34:09.769Z,4.90
2022-10-20T22:36:39.360Z,4.95
2022-10-20T22:39:07.890Z,4.72
2022-10-20T22:41:35.998Z,4.40
2022-10-20T22:44:04.111Z,4.80
2022-10-20T22:46:32.435Z,5.25
2022-10-20T22:49:02.006Z,5.28
2022-10-20T22:51:30.138Z,4.60
2022-10-20T22:53:58.852Z,4.95
2022-10-20T22:56:26.889Z,4.65
2022-10-20T22:58:55.343Z,4.82
2022-10-20T23:01:24.740Z,4.22
2022-10-20T23:03:53.146Z,4.47
2022-10-20T23:06:24.781Z,4.82
2022-10-20T23:08:55.365Z,4.65
2022-10-20T23:11:23.961Z,4.57
2022-10-20T23:13:52.372Z,4.30
2022-10-20T23:16:20.801Z,5.38
2022-10-20T23:18:49.136Z,4.88
2022-10-20T23:21:18.220Z,4.93
2022-10-20T23:23:48.064Z,4.55
2022-10-20T23:26:16.330Z,4.65
2022-10-20T23:28:44.603Z,3.60
2022-10-20T23:31:14.792Z,4.45
2022-10-20T23:33:44.029Z,3.90
2022-10-20T23:36:12.982Z,4.75
2022-10-20T23:38:41.492Z,4.47
2022-10-20T23:41:11.335Z,4.40
2022-10-20T23:43:39.498Z,3.92
2022-10-20T23:46:08.206Z,3.65
2022-10-20T23:48:37.054Z,4.18
2022-10-20T23:51:06.037Z,3.97
2022-10-20T23:53:34.770Z,3.97
2022-10-20T23:56:03.107Z,3.90
2022-10-20T23:58:32.534Z,4.07
